Time;durP1;ratioP1;P1;durP2;ratioP2;P2;SDS_P1;SDS_P2;PMS_P1;PMS_P2;Temp;Humidity;BMP_temperature;BMP_pressure;BME280_temperature;BME280_humidity;BME280_pressure;Samples;Min_cycle;Max_cycle;Signal;HPM_P1;HPM_P2
2023/05/12 00:00:05;;;;;;;;;9.00;9.00;;;;;12.97;85.32;99664.88;6284435;20;2754428;-61
2023/05/12 00:02:35;;;;;;;;;9.00;8.60;;;;;12.79;87.53;99653.56;6302295;20;2749379;-61
2023/05/12 00:05:04;;;;;;;;;9.60;8.40;;;;;13.01;86.45;99662.84;6335523;20;2763838;-61
2023/05/12 00:07:35;;;;;;;;;9.29;8.71;;;;;12.90;86.00;99661.75;6325110;20;1793120;-62
2023/05/12 00:10:02;;;;;;;;;8.00;8.00;;;;;12.93;84.99;99663.38;6315198;20;2737752;-62
2023/05/12 00:12:31;;;;;;;;;9.50;7.25;;;;;13.02;85.61;99661.84;6298986;20;1791519;-61
2023/05/12 00:15:00;;;;;;;;;7.40;7.40;;;;;13.05;84.84;99661.63;6336467;20;2737786;-61
2023/05/12 00:17:29;;;;;;;;;9.20;8.00;;;;;12.99;85.12;99662.06;6336729;20;2757630;-61
2023/05/12 00:19:56;;;;;;;;;7.00;7.00;;;;;13.05;84.97;99661.63;6284006;20;2732589;-62
2023/05/12 00:22:25;;;;;;;;;9.00;8.00;;;;;13.05;84.79;99650.84;6283818;20;2755505;-62
2023/05/12 00:24:52;;;;;;;;;10.00;8.00;;;;;12.89;84.47;99651.09;6280431;20;2775321;-61
2023/05/12 00:27:20;;;;;;;;;9.50;8.00;;;;;12.93;84.42;99647.22;6282353;20;2762812;-61
2023/05/12 00:29:47;;;;;;;;;9.00;9.00;;;;;12.96;84.61;99647.84;6284766;20;2737800;-61
2023/05/12 00:32:16;;;;;;;;;8.00;8.00;;;;;12.92;84.33;99651.72;6307694;20;2737825;-62
2023/05/12 00:34:43;;;;;;;;;10.00;9.00;;;;;12.85;85.08;99645.06;6314896;20;2760710;-61
2023/05/12 00:37:11;;;;;;;;;10.00;8.50;;;;;12.79;86.25;99640.09;6276012;20;2775461;-62
2023/05/12 00:39:40;;;;;;;;;8.60;8.00;;;;;12.66;87.11;99639.25;6307416;20;2753432;-61
2023/05/12 00:42:10;;;;;;;;;9.60;9.60;;;;;12.77;87.76;99635.78;6333937;20;2768924;-62
2023/05/12 00:44:38;;;;;;;;;10.00;9.00;;;;;12.48;88.95;99631.50;6279836;20;2773428;-61
2023/05/12 00:47:05;;;;;;;;;11.00;9.50;;;;;12.74;87.61;99635.06;6280372;20;2778525;-61
2023/05/12 00:49:35;;;;;;;;;12.60;12.60;;;;;12.72;86.86;99638.81;6306435;20;2786748;-61
2023/05/12 00:52:03;;;;;;;;;16.00;13.67;;;;;12.83;87.11;99636.22;6281711;20;3548330;-61
2023/05/12 00:54:31;;;;;;;;;10.50;10.50;;;;;12.58;87.02;99630.84;6280768;20;2792055;-61
2023/05/12 00:57:00;;;;;;;;;10.33;9.67;;;;;12.55;87.97;99625.69;6276875;20;2782674;-61
2023/05/12 00:59:28;;;;;;;;;9.50;9.50;;;;;12.51;87.94;99636.69;6313440;20;2767020;-61
2023/05/12 01:01:57;;;;;;;;;11.40;10.20;;;;;12.44;88.58;99630.00;6304367;20;2796107;-61
2023/05/12 01:04:25;;;;;;;;;10.00;8.50;;;;;12.52;88.70;99626.75;6280166;20;2768089;-58
2023/05/12 01:07:16;;;;;;;;;10.60;8.40;;;;;12.57;87.74;99634.53;6301770;20;2749238;-55
2023/05/12 01:09:43;;;;;;;;;7.00;7.00;;;;;12.56;88.24;99633.66;6277885;20;2746116;-57
2023/05/12 01:12:12;;;;;;;;;8.00;8.00;;;;;12.59;87.73;99637.97;6301968;20;2756545;-56
2023/05/12 01:14:40;;;;;;;;;12.00;10.00;;;;;12.83;86.73;99641.59;6281351;20;2794098;-57
2023/05/12 01:17:14;;;;;;;;;9.00;8.50;;;;;12.68;88.06;99645.38;6279700;20;2759755;-56
2023/05/12 01:19:52;;;;;;;;;8.20;7.00;;;;;12.76;87.80;99639.47;6308965;20;2735804;-57
2023/05/12 01:22:20;;;;;;;;;7.00;7.00;;;;;12.54;88.93;99640.13;6313322;20;2739877;-56
2023/05/12 01:25:02;;;;;;;;;8.40;8.00;;;;;12.54;87.99;99640.13;6307550;20;2765113;-57
2023/05/12 01:27:30;;;;;;;;;7.50;7.00;;;;;12.56;88.25;99647.13;6277375;20;2746133;-57
2023/05/12 01:30:02;;;;;;;;;7.00;6.50;;;;;12.62;87.31;99649.38;6286598;20;2734767;-57
2023/05/12 01:32:30;;;;;;;;;6.00;6.00;;;;;12.55;88.13;99642.69;6277925;20;2739962;-57
2023/05/12 01:34:57;;;;;;;;;6.50;6.50;;;;;12.39;88.32;99642.06;6282678;20;2741929;-57
2023/05/12 01:37:25;;;;;;;;;7.00;7.00;;;;;12.42;88.40;99640.00;6283160;20;2739872;-57
2023/05/12 01:39:53;;;;;;;;;9.00;8.00;;;;;12.48;87.51;99642.28;6282571;20;2724265;-55
2023/05/12 01:42:20;;;;;;;;;9.00;7.50;;;;;12.39;88.86;99642.06;6280066;20;2748202;-59
2023/05/12 01:44:48;;;;;;;;;7.00;7.00;;;;;12.47;88.42;99645.94;6283166;20;2740018;-55
2023/05/12 01:47:15;;;;;;;;;7.00;7.00;;;;;12.56;88.48;99640.84;6281906;20;2743054;-54
2023/05/12 01:49:42;;;;;;;;;5.00;5.00;;;;;12.61;89.51;99636.00;6282603;20;2739876;-57
2023/05/12 01:52:11;;;;;;;;;7.60;7.60;;;;;12.41;90.28;99645.50;6304858;20;2745068;-57
2023/05/12 01:54:40;;;;;;;;;9.00;7.40;;;;;12.35;91.35;99644.13;6332599;20;2729457;-54
2023/05/12 01:57:11;;;;;;;;;9.57;7.29;;;;;12.44;91.23;99646.16;6349943;20;1796148;-57
2023/05/12 01:59:38;;;;;;;;;9.50;8.50;;;;;12.25;91.80;99643.03;6312437;20;2751324;-57
2023/05/12 02:02:05;;;;;;;;;7.50;7.50;;;;;12.34;91.32;99639.69;6280180;20;2735715;-57
2023/05/12 02:04:33;;;;;;;;;9.50;9.50;;;;;12.22;91.24;99645.94;6276016;20;2764006;-57
2023/05/12 02:07:01;;;;;;;;;7.33;7.33;;;;;12.36;91.52;99635.06;6298161;20;1804455;-57
2023/05/12 02:09:28;;;;;;;;;9.00;8.00;;;;;12.28;90.87;99646.34;6307451;20;2733686;-57
2023/05/12 02:11:56;;;;;;;;;7.00;7.00;;;;;12.44;91.10;99640.75;6276116;20;2742081;-56
2023/05/12 02:14:23;;;;;;;;;7.50;7.50;;;;;12.39;91.14;99653.69;6279008;20;2738797;-57
2023/05/12 02:16:51;;;;;;;;;8.00;8.00;;;;;12.39;90.71;99644.75;6279080;20;2741952;-55
2023/05/12 02:19:19;;;;;;;;;8.50;8.50;;;;;12.26;91.50;99647.44;6276411;20;2741018;-57
2023/05/12 02:21:47;;;;;;;;;7.50;7.50;;;;;12.42;90.81;99653.47;6282593;20;2741926;-57
2023/05/12 02:24:19;;;;;;;;;11.50;11.50;;;;;12.27;91.48;99654.56;6281526;20;2791047;-55
2023/05/12 02:26:46;;;;;;;;;8.00;8.00;;;;;12.35;92.89;99656.69;6275992;20;2754533;-57
2023/05/12 02:29:14;;;;;;;;;5.00;5.00;;;;;12.12;94.00;99661.84;6295170;20;1805592;-55
2023/05/12 02:31:41;;;;;;;;;9.00;9.00;;;;;11.98;95.61;99653.81;6308204;20;2750294;-55
2023/05/12 02:34:08;;;;;;;;;10.00;8.00;;;;;12.07;95.11;99653.22;6281081;20;2759668;-56
2023/05/12 02:36:36;;;;;;;;;9.00;8.00;;;;;11.98;96.33;99654.72;6284273;20;2746113;-55
2023/05/12 02:39:04;;;;;;;;;9.00;8.00;;;;;11.93;96.81;99650.59;6282280;20;2757578;-57
2023/05/12 02:41:31;;;;;;;;;11.50;9.00;;;;;12.02;97.68;99656.22;6285406;20;2772179;-56
2023/05/12 02:43:58;;;;;;;;;8.00;8.00;;;;;12.14;94.72;99656.34;6287074;20;2742103;-57
2023/05/12 02:46:26;;;;;;;;;9.50;9.50;;;;;11.94;95.68;99663.09;6281867;20;2769145;-56
2023/05/12 02:48:53;;;;;;;;;11.00;9.50;;;;;11.94;96.68;99652.34;6282250;20;2773166;-56
2023/05/12 02:51:20;;;;;;;;;8.00;8.00;;;;;12.16;95.67;99662.47;6284274;20;2750314;-56
2023/05/12 02:53:47;;;;;;;;;9.50;7.50;;;;;12.10;95.62;99662.91;6285056;20;2744055;-56
2023/05/12 02:56:16;;;;;;;;;8.00;8.00;;;;;11.98;95.72;99660.09;6288612;20;2618068;-56
2023/05/12 02:58:44;;;;;;;;;10.00;9.00;;;;;11.95;96.55;99665.66;6282425;20;2762754;-56
2023/05/12 03:01:11;;;;;;;;;6.00;6.00;;;;;12.03;97.09;99668.72;6282192;20;2739843;-53
2023/05/12 03:03:40;;;;;;;;;9.67;9.67;;;;;12.06;97.27;99667.66;6280167;20;2777398;-57
2023/05/12 03:06:08;;;;;;;;;8.00;8.00;;;;;11.87;97.38;99676.09;6316944;20;2750265;-58
2023/05/12 03:08:37;;;;;;;;;10.00;9.60;;;;;11.94;97.16;99663.94;6303329;20;2785681;-57
2023/05/12 03:11:04;;;;;;;;;8.00;8.00;;;;;11.71;98.76;99672.66;6283775;20;2746207;-55
2023/05/12 03:13:32;;;;;;;;;12.50;10.00;;;;;11.92;99.09;99662.31;6280696;20;2786932;-57
2023/05/12 03:16:00;;;;;;;;;10.00;8.50;;;;;11.76;100.00;99665.16;6283868;20;2764994;-61
2023/05/12 03:18:31;;;;;;;;;7.71;7.71;;;;;11.74;100.00;99665.28;6328842;20;1803446;-61
2023/05/12 03:21:00;;;;;;;;;8.20;8.00;;;;;11.72;100.00;99674.41;6341371;20;2756592;-61
2023/05/12 03:23:27;;;;;;;;;9.50;9.50;;;;;11.82;100.00;99670.13;6314314;20;2770034;-61
2023/05/12 03:25:55;;;;;;;;;8.50;8.00;;;;;11.91;100.00;99664.16;6283599;20;2756641;-61
2023/05/12 03:28:24;;;;;;;;;8.80;8.60;;;;;12.00;100.00;99668.91;6310637;20;2747804;-61
2023/05/12 03:30:53;;;;;;;;;8.80;8.80;;;;;11.94;100.00;99674.72;6335673;20;2740870;-61
2023/05/12 03:33:20;;;;;;;;;10.00;8.00;;;;;11.95;100.00;99671.03;6315613;20;2771178;-61
2023/05/12 03:35:48;;;;;;;;;14.33;11.67;;;;;11.77;100.00;99683.91;6281168;20;2791949;-61
2023/05/12 03:38:17;;;;;;;;;9.80;9.80;;;;;11.99;100.00;99672.56;6338656;20;2785661;-61
2023/05/12 03:40:45;;;;;;;;;11.00;11.00;;;;;11.99;100.00;99675.25;6281395;20;2794147;-61
2023/05/12 03:43:14;;;;;;;;;11.00;8.60;;;;;12.17;100.00;99675.00;6304511;20;2764008;-61
2023/05/12 03:45:42;;;;;;;;;10.00;10.00;;;;;11.99;100.00;99675.25;6279835;20;2792162;-61
2023/05/12 03:48:09;;;;;;;;;11.00;11.00;;;;;12.01;100.00;99676.03;6308277;20;2794166;-61
2023/05/12 03:50:37;;;;;;;;;12.00;11.00;;;;;11.76;100.00;99686.69;6281529;20;2790896;-62
2023/05/12 03:53:04;;;;;;;;;15.00;11.00;;;;;11.87;100.00;99681.47;6282465;20;2798327;-61
2023/05/12 03:55:33;;;;;;;;;10.33;9.67;;;;;11.82;100.00;99684.44;6281316;20;2781651;-62
2023/05/12 03:58:01;;;;;;;;;11.00;11.00;;;;;11.76;100.00;99676.78;6309834;20;2785744;-61
2023/05/12 04:00:28;;;;;;;;;8.50;8.00;;;;;11.90;100.00;99678.59;6312208;20;2771200;-62
2023/05/12 04:02:59;;;;;;;;;9.14;9.14;;;;;11.78;100.00;99679.38;6322931;20;1804471;-61
2023/05/12 04:05:27;;;;;;;;;10.00;8.00;;;;;12.10;100.00;99679.06;6316580;20;1995195;-62
2023/05/12 04:07:54;;;;;;;;;11.00;11.00;;;;;12.07;100.00;99685.50;6276362;20;2789893;-61
2023/05/12 04:10:23;;;;;;;;;11.80;9.60;;;;;11.90;100.00;99692.03;6301744;20;2788867;-61
2023/05/12 04:12:51;;;;;;;;;10.00;10.00;;;;;11.77;100.00;99685.69;6278643;20;2675468;-61
2023/05/12 04:15:18;;;;;;;;;12.50;11.00;;;;;11.94;100.00;99696.25;6279923;20;2792048;-62
2023/05/12 04:17:46;;;;;;;;;11.00;11.00;;;;;11.99;100.00;99693.25;6282492;20;2794131;-61
2023/05/12 04:20:13;;;;;;;;;9.50;9.50;;;;;11.98;100.00;99694.19;6283847;20;2763935;-61
2023/05/12 04:22:41;;;;;;;;;10.50;8.00;;;;;11.95;100.00;99697.09;6281232;20;2762901;-61
2023/05/12 04:25:08;;;;;;;;;11.50;10.00;;;;;12.15;100.00;99687.69;6280207;20;2788788;-61
2023/05/12 04:27:38;;;;;;;;;11.20;10.00;;;;;12.21;100.00;99693.50;6306151;20;2789028;-61
2023/05/12 04:30:07;;;;;;;;;11.00;11.00;;;;;12.28;100.00;99693.97;6277063;20;3525430;-61
2023/05/12 04:32:36;;;;;;;;;12.20;11.00;;;;;12.24;100.00;99692.44;6334070;20;2790981;-61
2023/05/12 04:35:05;;;;;;;;;11.60;10.00;;;;;12.21;100.00;99692.63;6304675;20;2781530;-61
2023/05/12 04:37:33;;;;;;;;;9.00;9.00;;;;;12.47;100.00;99696.25;6284144;20;2746206;-61
2023/05/12 04:40:00;;;;;;;;;10.00;10.00;;;;;12.45;100.00;99696.38;6279617;20;2780616;-61
2023/05/12 04:42:28;;;;;;;;;10.00;10.00;;;;;12.46;100.00;99699.91;6282703;20;2795134;-61
2023/05/12 04:44:56;;;;;;;;;11.00;11.00;;;;;12.41;100.00;99700.22;6280650;20;2788987;-61
2023/05/12 04:47:23;;;;;;;;;11.00;11.00;;;;;12.56;100.00;99703.69;6310852;20;2783581;-61
2023/05/12 04:49:51;;;;;;;;;16.00;14.00;;;;;12.46;100.00;99705.28;6277462;20;2779581;-61
2023/05/12 04:52:21;;;;;;;;;9.00;9.00;;;;;12.49;100.00;99697.00;6311280;20;2759650;-61
2023/05/12 04:54:50;;;;;;;;;10.00;8.50;;;;;12.64;100.00;99706.72;6308882;20;2771190;-62
2023/05/12 04:57:18;;;;;;;;;12.50;10.50;;;;;12.63;100.00;99698.72;6280062;20;2784617;-61
2023/05/12 04:59:47;;;;;;;;;10.60;10.20;;;;;12.69;100.00;99698.28;6302736;20;2796280;-61
2023/05/12 05:02:15;;;;;;;;;11.00;10.50;;;;;12.73;100.00;99697.13;6281596;20;2794071;-62
2023/05/12 05:04:42;;;;;;;;;9.00;9.00;;;;;12.80;100.00;99711.03;6285081;20;2742983;-61
2023/05/12 05:07:11;;;;;;;;;10.80;10.80;;;;;12.68;100.00;99705.50;6299833;20;2790958;-61
2023/05/12 05:09:40;;;;;;;;;8.40;8.40;;;;;12.88;100.00;99701.44;6306675;20;2751483;-61
2023/05/12 05:12:07;;;;;;;;;10.00;9.00;;;;;12.93;100.00;99696.56;6311812;20;2769100;-61
2023/05/12 05:14:37;;;;;;;;;13.40;11.80;;;;;12.82;100.00;99704.56;6302903;20;2786721;-61
2023/05/12 05:17:06;;;;;;;;;10.33;10.00;;;;;12.87;100.00;99710.47;6276938;20;2791012;-61
2023/05/12 05:19:34;;;;;;;;;9.00;9.00;;;;;13.01;100.00;99701.41;6310159;20;2748313;-61
2023/05/12 05:22:21;;;;;;;;;11.00;11.00;;;;;13.02;100.00;99707.66;6281158;20;2789016;-61
2023/05/12 05:24:49;;;;;;;;;11.00;9.67;;;;;12.84;100.00;99708.00;6269289;20;2781644;-61
2023/05/12 05:27:17;;;;;;;;;13.67;13.33;;;;;12.83;100.00;99711.66;6307236;20;3533569;-61
2023/05/12 05:29:45;;;;;;;;;13.33;10.00;;;;;12.88;100.00;99709.50;6304825;20;3513807;-61
2023/05/12 05:32:14;;;;;;;;;17.00;15.67;;;;;12.88;100.00;99712.19;6305107;20;3553395;-61
2023/05/12 05:34:41;;;;;;;;;15.00;15.00;;;;;12.92;100.00;99715.53;6278129;20;2809715;-61
2023/05/12 05:37:08;;;;;;;;;14.50;13.00;;;;;12.83;99.69;99714.34;6278974;20;2804449;-61
2023/05/12 05:39:36;;;;;;;;;14.67;12.00;;;;;12.68;98.09;99712.72;6278966;20;2785781;-61
2023/05/12 05:42:05;;;;;;;;;12.67;9.67;;;;;12.78;98.74;99712.97;6311924;20;2783609;-61
2023/05/12 05:44:33;;;;;;;;;9.67;9.00;;;;;12.62;98.64;99714.03;6305637;20;2768059;-61
2023/05/12 05:47:01;;;;;;;;;8.00;8.00;;;;;12.57;97.86;99715.31;6309221;20;2744067;-61
2023/05/12 05:49:29;;;;;;;;;11.00;9.50;;;;;12.58;99.07;99722.41;6283772;20;2779603;-61
2023/05/12 05:51:58;;;;;;;;;16.00;11.60;;;;;12.68;98.18;99728.91;6308234;20;2804551;-61
2023/05/12 05:54:26;;;;;;;;;12.00;12.00;;;;;12.41;99.91;99728.97;6279054;20;2795217;-61
2023/05/12 05:56:54;;;;;;;;;11.00;11.00;;;;;12.51;100.00;99725.56;6310988;20;2787921;-61
2023/05/12 05:59:23;;;;;;;;;12.33;11.33;;;;;12.42;100.00;99726.16;6281849;20;2792207;-61
2023/05/12 06:01:50;;;;;;;;;14.00;14.00;;;;;12.74;100.00;99731.16;6316817;20;2802442;-62
2023/05/12 06:04:18;;;;;;;;;16.67;16.00;;;;;12.71;100.00;99728.69;6277436;20;3548277;-61
2023/05/12 06:06:46;;;;;;;;;13.00;13.00;;;;;12.92;100.00;99732.56;6277181;20;2790912;-62
2023/05/12 06:09:14;;;;;;;;;16.00;14.00;;;;;12.85;100.00;99728.59;6279044;20;3537796;-62
2023/05/12 06:11:42;;;;;;;;;14.00;14.00;;;;;12.95;100.00;99731.47;6306792;20;3525408;-62
2023/05/12 06:14:10;;;;;;;;;16.00;12.00;;;;;13.16;100.00;99735.38;6310326;20;2813007;-62
2023/05/12 06:16:38;;;;;;;;;12.33;11.33;;;;;13.20;100.00;99727.91;6276074;20;3522117;-62
2023/05/12 06:19:06;;;;;;;;;13.00;11.67;;;;;13.23;100.00;99733.09;6312718;20;2794227;-62
2023/05/12 06:21:36;;;;;;;;;13.40;12.40;;;;;13.20;100.00;99730.59;6336447;20;2785741;-62
2023/05/12 06:24:04;;;;;;;;;12.67;12.00;;;;;13.21;99.47;99723.38;6276794;20;3525273;-62
2023/05/12 06:26:32;;;;;;;;;11.67;11.67;;;;;13.37;100.00;99726.72;6304521;20;3522227;-62
2023/05/12 06:29:00;;;;;;;;;11.00;11.00;;;;;13.33;99.77;99731.47;6305699;20;2786872;-62
2023/05/12 06:31:28;;;;;;;;;10.50;9.00;;;;;13.20;98.44;99729.75;6306610;20;2774255;-62
2023/05/12 06:33:55;;;;;;;;;9.00;9.00;;;;;13.24;99.73;99732.09;6285055;20;2733625;-62
2023/05/12 06:36:22;;;;;;;;;12.50;11.00;;;;;13.26;98.27;99727.50;6281766;20;2791977;-62
2023/05/12 06:38:51;;;;;;;;;13.00;13.00;;;;;13.23;97.50;99738.47;6282871;20;2806965;-61
2023/05/12 06:41:18;;;;;;;;;8.00;7.00;;;;;13.35;97.39;99736.78;6283780;20;2743391;-61
2023/05/12 06:43:46;;;;;;;;;13.67;11.67;;;;;13.43;97.60;99733.50;6276263;20;3518114;-61
2023/05/12 06:46:14;;;;;;;;;14.00;14.00;;;;;13.57;98.99;99736.91;6308955;20;3405500;-61
2023/05/12 06:48:41;;;;;;;;;12.00;9.50;;;;;13.57;96.64;99736.06;6308845;20;2787863;-61
2023/05/12 06:51:09;;;;;;;;;11.50;11.50;;;;;13.46;96.35;99728.75;6279485;20;2802487;-61
2023/05/12 06:53:36;;;;;;;;;10.50;10.50;;;;;13.58;97.44;99735.06;6281404;20;2791959;-61
2023/05/12 06:56:05;;;;;;;;;11.00;11.00;;;;;13.48;95.42;99731.31;6280797;20;2788910;-61
2023/05/12 06:58:34;;;;;;;;;11.80;10.80;;;;;13.61;95.99;99737.53;6304553;20;2790304;-61
2023/05/12 07:01:02;;;;;;;;;11.00;11.00;;;;;13.57;95.53;99734.22;6278417;20;2792033;-61
2023/05/12 07:03:32;;;;;;;;;13.00;12.50;;;;;13.49;95.53;99733.94;6314134;20;2782967;-61
2023/05/12 07:06:02;;;;;;;;;11.20;11.20;;;;;13.59;96.19;99737.69;6303666;20;2791056;-62
2023/05/12 07:08:29;;;;;;;;;11.00;10.00;;;;;13.51;96.89;99737.38;6286658;20;2790934;-61
2023/05/12 07:10:59;;;;;;;;;12.00;12.00;;;;;13.62;97.04;99739.28;6282086;20;2796425;-62
2023/05/12 07:13:27;;;;;;;;;13.33;12.00;;;;;13.62;97.20;99742.00;6277914;20;2791309;-61
2023/05/12 07:15:56;;;;;;;;;12.00;11.67;;;;;13.63;98.16;99737.44;6308550;20;2799378;-61
2023/05/12 07:18:24;;;;;;;;;13.00;12.00;;;;;13.65;97.15;99736.34;6309218;20;2793088;-61
2023/05/12 07:20:52;;;;;;;;;9.50;9.50;;;;;13.81;97.35;99744.19;6320141;20;2765996;-61
2023/05/12 07:23:20;;;;;;;;;12.33;12.33;;;;;13.74;99.01;99745.59;6286527;20;2794029;-61
2023/05/12 07:25:47;;;;;;;;;11.00;11.00;;;;;13.72;97.16;99745.75;6318635;20;2794036;-61
2023/05/12 07:28:15;;;;;;;;;12.00;11.00;;;;;13.71;96.82;99749.38;6286997;20;2796155;-61
2023/05/12 07:30:45;;;;;;;;;14.40;13.00;;;;;13.72;96.06;99743.03;6342155;20;2785794;-61
2023/05/12 07:33:13;;;;;;;;;11.00;11.00;;;;;13.66;98.09;99753.41;6285064;20;2796208;-61
2023/05/12 07:35:40;;;;;;;;;17.00;15.00;;;;;13.52;99.35;99744.50;6319917;20;2498187;-60
2023/05/12 07:38:08;;;;;;;;;13.50;11.00;;;;;13.06;100.00;99739.69;6286387;20;2786760;-60
2023/05/12 07:40:36;;;;;;;;;11.00;10.67;;;;;12.64;99.74;99744.44;6286006;20;3520054;-60
2023/05/12 07:43:04;;;;;;;;;18.00;18.00;;;;;12.75;100.00;99754.44;6314067;20;2834709;-61
2023/05/12 07:45:32;;;;;;;;;20.00;20.00;;;;;12.51;100.00;99752.47;6284770;20;2831661;-60
2023/05/12 07:48:00;;;;;;;;;22.50;21.00;;;;;12.43;100.00;99749.44;6283790;20;2492087;-61
2023/05/12 07:50:28;;;;;;;;;18.00;18.00;;;;;12.42;100.00;99750.41;6285276;20;2830504;-61
2023/05/12 07:52:56;;;;;;;;;22.00;22.00;;;;;12.37;100.00;99757.94;6278942;20;2849336;-60
2023/05/12 07:55:25;;;;;;;;;19.33;19.33;;;;;12.24;100.00;99766.00;6282966;20;3566981;-61
2023/05/12 07:57:53;;;;;;;;;19.00;19.00;;;;;12.52;100.00;99767.66;6284321;20;3571166;-61
2023/05/12 08:00:22;;;;;;;;;22.50;19.00;;;;;12.49;100.00;99756.25;6280961;20;2845201;-61
2023/05/12 08:02:49;;;;;;;;;20.00;16.00;;;;;12.57;100.00;99755.72;6278463;20;2500410;-61
2023/05/12 08:05:17;;;;;;;;;19.50;19.50;;;;;12.40;100.00;99768.53;6282507;20;2837898;-61
2023/05/12 08:07:45;;;;;;;;;18.00;16.50;;;;;12.27;100.00;99765.78;6282696;20;2494162;-61
2023/05/12 08:10:12;;;;;;;;;23.00;20.50;;;;;12.34;100.00;99777.00;6282078;20;2490461;-61
2023/05/12 08:12:41;;;;;;;;;21.50;21.50;;;;;12.45;100.00;99771.75;6281182;20;2848204;-61
2023/05/12 08:15:12;;;;;;;;;23.00;21.50;;;;;12.41;100.00;99775.63;6281499;20;2832691;-61
2023/05/12 08:17:41;;;;;;;;;24.00;23.00;;;;;12.43;100.00;99772.84;6284621;20;2839984;-62
2023/05/12 08:20:10;;;;;;;;;21.50;20.00;;;;;12.58;100.00;99770.91;6283084;20;2844075;-61
2023/05/12 08:22:38;;;;;;;;;20.00;20.00;;;;;12.59;100.00;99775.34;6280369;20;2833759;-62
2023/05/12 08:25:07;;;;;;;;;22.50;18.50;;;;;12.60;100.00;99787.84;6280060;20;2489986;-62
2023/05/12 08:27:39;;;;;;;;;23.00;22.00;;;;;12.59;100.00;99778.03;6277341;20;2838997;-61
2023/05/12 08:30:08;;;;;;;;;18.00;17.00;;;;;12.72;100.00;99779.78;6282399;20;2828535;-61
2023/05/12 08:32:36;;;;;;;;;20.00;20.00;;;;;12.86;100.00;99781.50;6279830;20;2838940;-62
2023/05/12 08:35:05;;;;;;;;;23.00;19.00;;;;;12.78;100.00;99783.00;6280055;20;2844047;-61
2023/05/12 08:37:33;;;;;;;;;20.50;19.00;;;;;12.67;100.00;99781.06;6279754;20;2840033;-61
2023/05/12 08:40:02;;;;;;;;;25.00;21.00;;;;;12.65;100.00;99788.38;6281541;20;2838844;-61
2023/05/12 08:42:43;;;;;;;;;23.50;20.00;;;;;12.44;100.00;99788.00;6278863;20;2827383;-60
2023/05/12 08:45:11;;;;;;;;;19.50;19.00;;;;;12.27;100.00;99781.94;6279353;20;2830527;-61
2023/05/12 08:47:42;;;;;;;;;19.50;18.50;;;;;12.14;100.00;99783.72;6280068;20;2834789;-60
2023/05/12 08:50:13;;;;;;;;;21.50;21.50;;;;;12.12;100.00;99787.47;6284997;20;2840906;-60
2023/05/12 08:52:41;;;;;;;;;21.00;21.00;;;;;11.95;100.00;99793.97;6279410;20;2833631;-59
2023/05/12 08:55:11;;;;;;;;;24.00;22.00;;;;;11.91;100.00;99795.16;6281439;20;2848280;-61
2023/05/12 08:57:44;;;;;;;;;23.67;21.33;;;;;12.01;100.00;99796.28;6316923;20;3573186;-62
2023/05/12 09:00:12;;;;;;;;;22.00;20.50;;;;;11.99;100.00;99800.88;6309691;20;2500361;-60
2023/05/12 09:02:42;;;;;;;;;23.00;18.00;;;;;11.90;100.00;99799.66;6283242;20;2830914;-60
2023/05/12 09:05:21;;;;;;;;;21.00;21.00;;;;;12.00;100.00;99808.84;6284059;20;2825730;-61
2023/05/12 09:07:53;;;;;;;;;24.50;22.50;;;;;11.98;100.00;99804.50;6284184;20;2844031;-61
2023/05/12 09:10:24;;;;;;;;;22.50;22.00;;;;;12.00;100.00;99803.44;6284460;20;2834858;-61
2023/05/12 09:13:13;;;;;;;;;28.00;25.67;;;;;12.12;100.00;99811.72;6276674;20;2856752;-61
2023/05/12 09:15:44;;;;;;;;;26.00;24.00;;;;;12.26;100.00;99803.56;6312599;20;2847166;-62
2023/05/12 09:18:13;;;;;;;;;25.33;22.33;;;;;12.19;100.00;99805.81;6279156;20;3571308;-61
2023/05/12 09:20:41;;;;;;;;;25.50;23.00;;;;;12.24;100.00;99810.88;6283834;20;2839916;-61
2023/05/12 09:23:18;;;;;;;;;21.00;21.00;;;;;12.28;100.00;99810.56;6279106;20;2831628;-61
2023/05/12 09:25:59;;;;;;;;;25.00;23.50;;;;;12.15;100.00;99817.75;6282770;20;2830711;-60
2023/05/12 09:28:37;;;;;;;;;22.50;22.50;;;;;12.00;100.00;99813.34;6278427;20;2833617;-61
2023/05/12 09:31:19;;;;;;;;;25.50;21.50;;;;;12.15;100.00;99806.13;6277920;20;2822169;-61
2023/05/12 09:33:50;;;;;;;;;21.00;21.00;;;;;12.27;100.00;99816.09;6280574;20;2842020;-60
2023/05/12 09:36:21;;;;;;;;;26.50;25.50;;;;;12.12;100.00;99820.63;6281703;20;2848192;-60
2023/05/12 09:39:06;;;;;;;;;24.50;21.50;;;;;12.23;100.00;99823.47;6281159;20;2837790;-61
2023/05/12 09:41:35;;;;;;;;;23.00;22.00;;;;;12.29;100.00;99814.97;6279431;20;2500314;-61
2023/05/12 09:44:05;;;;;;;;;25.50;24.50;;;;;12.27;100.00;99810.69;6282453;20;2852526;-61
2023/05/12 09:46:35;;;;;;;;;22.50;21.00;;;;;12.06;100.00;99815.66;6279414;20;2844186;-61
2023/05/12 09:49:02;;;;;;;;;22.50;18.50;;;;;11.92;100.00;99815.69;6278443;20;2485723;-62
2023/05/12 09:51:31;;;;;;;;;25.50;25.00;;;;;11.95;100.00;99815.50;6279453;20;2849334;-62
2023/05/12 09:54:00;;;;;;;;;28.00;27.67;;;;;12.01;100.00;99817.78;6278618;20;2858695;-63
2023/05/12 09:56:31;;;;;;;;;28.67;26.00;;;;;12.24;100.00;99819.84;6314837;20;3594008;-62
2023/05/12 09:59:04;;;;;;;;;23.67;21.00;;;;;12.13;100.00;99818.81;6275015;20;2854441;-62
2023/05/12 10:01:34;;;;;;;;;28.00;25.00;;;;;11.92;100.00;99819.25;6309957;20;2840916;-61
2023/05/12 10:04:07;;;;;;;;;31.00;30.33;;;;;11.97;100.00;99819.81;6310483;20;3611733;-62
2023/05/12 10:06:41;;;;;;;;;25.33;23.00;;;;;11.97;100.00;99822.50;6310194;20;3589896;-62
2023/05/12 10:09:26;;;;;;;;;28.33;26.67;;;;;11.90;100.00;99814.91;6277215;20;3593143;-61
2023/05/12 10:11:55;;;;;;;;;29.00;26.50;;;;;11.86;100.00;99817.81;6279652;20;2847970;-62
2023/05/12 10:14:23;;;;;;;;;34.33;30.00;;;;;11.86;100.00;99819.66;6276470;20;3604505;-62
2023/05/12 10:16:53;;;;;;;;;26.50;22.00;;;;;11.81;100.00;99824.44;6275351;20;2837885;-61
2023/05/12 10:19:23;;;;;;;;;24.33;24.33;;;;;11.64;100.00;99834.44;6279147;20;3591001;-61
2023/05/12 10:21:54;;;;;;;;;28.33;26.67;;;;;11.76;100.00;99831.94;6279856;20;2860827;-61
2023/05/12 10:24:27;;;;;;;;;20.00;19.00;;;;;11.80;100.00;99826.25;6309286;20;2827400;-61
2023/05/12 10:26:55;;;;;;;;;29.67;29.00;;;;;11.90;100.00;99828.38;6277970;20;3598233;-62
2023/05/12 10:29:28;;;;;;;;;32.33;27.00;;;;;11.79;100.00;99829.88;6278348;20;2858717;-61
2023/05/12 10:32:00;;;;;;;;;33.67;31.67;;;;;11.79;100.00;99820.97;6310487;20;3592318;-62
2023/05/12 10:34:33;;;;;;;;;30.33;29.33;;;;;11.88;100.00;99825.81;6271740;20;3606518;-62
2023/05/12 10:37:07;;;;;;;;;24.00;24.00;;;;;11.78;100.00;99820.09;6304068;20;2836745;-61
2023/05/12 10:39:46;;;;;;;;;28.33;22.67;;;;;11.85;100.00;99828.66;6273580;20;3584679;-62
2023/05/12 10:42:24;;;;;;;;;29.67;29.33;;;;;11.74;100.00;99809.63;6270287;20;2855619;-60
2023/05/12 10:44:55;;;;;;;;;31.00;27.00;;;;;11.62;100.00;99806.78;6307583;20;3597655;-61
2023/05/12 10:47:37;;;;;;;;;32.00;31.00;;;;;11.70;100.00;99816.19;6277480;20;3603422;-61
2023/05/12 10:50:06;;;;;;;;;29.00;26.00;;;;;11.83;100.00;99819.81;6312649;20;3577376;-60
2023/05/12 10:52:35;;;;;;;;;30.67;27.67;;;;;11.88;100.00;99828.50;6275814;20;2851662;-61
2023/05/12 10:55:04;;;;;;;;;26.00;26.00;;;;;12.07;100.00;99828.16;6312817;20;3600268;-61
2023/05/12 10:57:33;;;;;;;;;29.00;26.67;;;;;12.30;100.00;99818.56;6281029;20;2856657;-61
2023/05/12 11:00:02;;;;;;;;;30.67;26.00;;;;;12.41;100.00;99824.09;6315899;20;3593038;-62
2023/05/12 11:02:33;;;;;;;;;27.00;27.00;;;;;12.47;100.00;99823.66;6285716;20;3602496;-62
2023/05/12 11:05:13;;;;;;;;;30.67;26.33;;;;;12.44;100.00;99831.97;6318380;20;3597203;-61
2023/05/12 11:07:48;;;;;;;;;24.50;24.50;;;;;12.38;100.00;99818.91;6280212;20;2835846;-62
2023/05/12 11:10:18;;;;;;;;;20.33;18.67;;;;;12.30;100.00;99815.88;6278063;20;3566960;-61